createdAt,value
2022-08-09T00:00:02.000Z,9.19
2022-08-09T00:01:01.000Z,9.26
2022-08-09T00:02:01.000Z,9.15
2022-08-09T00:03:01.000Z,9.34
2022-08-09T00:04:01.000Z,9.33
2022-08-09T00:05:02.000Z,9.25
2022-08-09T00:05:02.000Z,9.25
2022-08-09T00:06:24.000Z,9.22
2022-08-09T00:07:03.000Z,9.27
2022-08-09T00:08:01.000Z,9.30
2022-08-09T00:09:01.000Z,9.30
2022-08-09T00:10:02.000Z,9.23
2022-08-09T00:11:01.000Z,9.23
2022-08-09T00:12:01.000Z,9.21
2022-08-09T00:13:01.000Z,9.30
2022-08-09T00:14:01.000Z,9.19
2022-08-09T00:15:01.000Z,9.22
2022-08-09T00:16:01.000Z,9.10
2022-08-09T00:17:02.000Z,9.25
2022-08-09T00:18:01.000Z,9.21
2022-08-09T00:19:02.000Z,9.15
2022-08-09T00:20:01.000Z,9.17
2022-08-09T00:21:04.000Z,9.10
2022-08-09T00:22:02.000Z,9.14
2022-08-09T00:23:01.000Z,9.18
2022-08-09T00:23:01.000Z,9.18
2022-08-09T00:24:01.000Z,9.12
2022-08-09T00:25:01.000Z,9.12
2022-08-09T00:26:01.000Z,8.97
2022-08-09T00:27:01.000Z,9.13
2022-08-09T00:28:02.000Z,9.12
2022-08-09T00:29:01.000Z,9.07
2022-08-09T00:30:01.000Z,9.25
2022-08-09T00:31:01.000Z,9.00
2022-08-09T00:32:01.000Z,8.98
2022-08-09T00:33:01.000Z,8.99
2022-08-09T00:34:01.000Z,8.94
2022-08-09T00:35:02.000Z,9.07
2022-08-09T00:36:02.000Z,8.92
2022-08-09T00:37:00.000Z,8.93
2022-08-09T00:38:01.000Z,8.98
2022-08-09T00:39:00.000Z,8.98
2022-08-09T00:40:01.000Z,8.96
2022-08-09T00:41:01.000Z,8.86
2022-08-09T00:42:00.000Z,8.82
2022-08-09T00:42:00.000Z,8.82
2022-08-09T00:42:00.000Z,8.82
2022-08-09T00:42:00.000Z,8.82
2022-08-09T00:43:32.000Z,8.78
2022-08-09T00:44:28.000Z,8.80
2022-08-09T00:45:03.000Z,8.74
2022-08-09T00:46:01.000Z,8.64
2022-08-09T00:47:01.000Z,8.68
2022-08-09T00:48:03.000Z,8.74
2022-08-09T00:49:01.000Z,8.70
2022-08-09T00:50:02.000Z,8.72
2022-08-09T00:51:03.000Z,8.58
2022-08-09T00:52:01.000Z,8.59
2022-08-09T00:53:01.000Z,8.58
2022-08-09T00:54:02.000Z,8.62
2022-08-09T00:55:01.000Z,8.57
2022-08-09T00:56:03.000Z,8.46
2022-08-09T00:57:00.000Z,8.67
2022-08-09T00:58:01.000Z,8.59
2022-08-09T00:59:01.000Z,8.58
2022-08-09T01:00:05.000Z,8.57
2022-08-09T01:01:09.000Z,8.54
2022-08-09T01:02:00.000Z,8.52
2022-08-09T01:03:10.000Z,8.53
2022-08-09T01:04:10.000Z,8.56
2022-08-09T01:05:23.000Z,8.59
2022-08-09T01:06:08.000Z,8.64
2022-08-09T01:07:12.000Z,8.45
2022-08-09T01:08:09.000Z,8.59
2022-08-09T01:09:12.000Z,8.69
2022-08-09T01:10:12.000Z,8.59
2022-08-09T01:11:23.000Z,8.58
2022-08-09T01:12:15.000Z,8.49
2022-08-09T01:13:11.000Z,8.46
2022-08-09T01:14:34.000Z,8.59
2022-08-09T01:15:06.000Z,8.47
2022-08-09T01:16:03.000Z,8.52
2022-08-09T01:17:07.000Z,8.74
2022-08-09T01:18:05.000Z,8.66
2022-08-09T01:19:12.000Z,8.73
2022-08-09T01:20:20.000Z,8.89
2022-08-09T01:21:23.000Z,8.79
2022-08-09T01:22:10.000Z,8.89
2022-08-09T01:23:10.000Z,8.97
2022-08-09T01:23:10.000Z,8.97
2022-08-09T01:24:14.000Z,8.81
2022-08-09T01:25:21.000Z,8.88
2022-08-09T01:26:23.000Z,8.91
2022-08-09T01:27:18.000Z,8.89
2022-08-09T01:28:03.000Z,8.94
2022-08-09T01:29:02.000Z,8.88
2022-08-09T01:30:05.000Z,8.92
2022-08-09T01:31:03.000Z,8.95
2022-08-09T01:32:04.000Z,8.88
2022-08-09T01:33:04.000Z,8.96
2022-08-09T01:34:03.000Z,8.87
2022-08-09T01:35:06.000Z,8.90
2022-08-09T01:36:07.000Z,8.79
2022-08-09T01:37:03.000Z,8.91
2022-08-09T01:38:07.000Z,8.80
2022-08-09T01:39:01.000Z,8.87
2022-08-09T01:40:05.000Z,8.83
2022-08-09T01:41:14.000Z,8.83
2022-08-09T01:42:03.000Z,8.86
2022-08-09T01:43:03.000Z,8.77
2022-08-09T01:44:04.000Z,8.60
2022-08-09T01:45:01.000Z,8.82
2022-08-09T01:46:02.000Z,8.68
2022-08-09T01:47:02.000Z,9.03
2022-08-09T01:48:01.000Z,8.89
2022-08-09T01:49:05.000Z,9.09
2022-08-09T01:50:03.000Z,9.18
2022-08-09T01:51:01.000Z,9.41
2022-08-09T01:52:07.000Z,9.24
2022-08-09T01:53:04.000Z,9.18
2022-08-09T01:54:03.000Z,9.51
2022-08-09T01:55:02.000Z,9.32
2022-08-09T01:56:02.000Z,9.45
2022-08-09T01:57:09.000Z,9.64
2022-08-09T01:58:04.000Z,9.68
2022-08-09T01:59:06.000Z,9.77
2022-08-09T02:00:06.000Z,9.52
2022-08-09T02:01:02.000Z,9.35
2022-08-09T02:02:01.000Z,9.29
2022-08-09T02:03:03.000Z,9.68
2022-08-09T02:04:03.000Z,9.85
2022-08-09T02:05:08.000Z,9.87
2022-08-09T02:06:03.000Z,9.72
2022-08-09T02:07:09.000Z,9.94
2022-08-09T02:07:09.000Z,9.94
2022-08-09T02:07:09.000Z,9.94
2022-08-09T02:08:34.000Z,9.74
2022-08-09T02:09:01.000Z,9.87
2022-08-09T02:10:06.000Z,9.76
2022-08-09T02:11:02.000Z,9.57
2022-08-09T02:12:03.000Z,9.81
2022-08-09T02:13:03.000Z,9.84
2022-08-09T02:14:06.000Z,9.64
2022-08-09T02:15:03.000Z,9.69
2022-08-09T02:16:02.000Z,9.45
2022-08-09T02:17:01.000Z,9.40
2022-08-09T02:17:01.000Z,9.40
2022-08-09T02:18:10.000Z,9.80
2022-08-09T02:19:01.000Z,9.74
2022-08-09T02:20:01.000Z,9.85
2022-08-09T02:21:13.000Z,9.84
2022-08-09T02:22:08.000Z,9.80
2022-08-09T02:23:10.000Z,9.56
2022-08-09T02:24:07.000Z,9.72
2022-08-09T02:25:04.000Z,9.68
2022-08-09T02:26:02.000Z,9.74
2022-08-09T02:27:05.000Z,9.83
2022-08-09T02:28:08.000Z,9.60
2022-08-09T02:29:08.000Z,9.70
2022-08-09T02:30:01.000Z,9.78
2022-08-09T02:31:08.000Z,9.86
2022-08-09T02:32:02.000Z,9.89
2022-08-09T02:33:01.000Z,9.51
2022-08-09T02:34:09.000Z,9.59
2022-08-09T02:35:04.000Z,9.88
2022-08-09T02:36:03.000Z,9.91
2022-08-09T02:37:05.000Z,9.85
2022-08-09T02:38:02.000Z,9.88
2022-08-09T02:39:04.000Z,9.82
2022-08-09T02:40:05.000Z,9.80
2022-08-09T02:41:07.000Z,9.56
2022-08-09T02:42:06.000Z,9.65
2022-08-09T02:43:02.000Z,9.74
2022-08-09T02:44:04.000Z,9.52
2022-08-09T02:45:04.000Z,9.48
2022-08-09T02:46:05.000Z,9.53
2022-08-09T02:47:04.000Z,9.58
2022-08-09T02:48:06.000Z,9.73
2022-08-09T02:49:07.000Z,9.72
2022-08-09T02:50:05.000Z,9.66
2022-08-09T02:51:02.000Z,9.44
2022-08-09T02:52:02.000Z,9.63
2022-08-09T02:53:07.000Z,9.81
2022-08-09T02:54:02.000Z,9.71
2022-08-09T02:55:02.000Z,9.81
2022-08-09T02:56:04.000Z,9.78
2022-08-09T02:57:02.000Z,9.84
2022-08-09T02:58:01.000Z,9.82
2022-08-09T02:59:03.000Z,9.82
2022-08-09T03:00:02.000Z,9.77
2022-08-09T03:01:02.000Z,9.73
2022-08-09T03:02:03.000Z,9.84
2022-08-09T03:03:04.000Z,9.78
2022-08-09T03:04:02.000Z,9.79
2022-08-09T03:05:02.000Z,9.77
2022-08-09T03:06:03.000Z,9.59
2022-08-09T03:07:04.000Z,9.64
2022-08-09T03:08:03.000Z,9.76
2022-08-09T03:09:02.000Z,9.81
2022-08-09T03:10:02.000Z,9.67
2022-08-09T03:11:01.000Z,9.70
2022-08-09T03:12:01.000Z,9.57
2022-08-09T03:13:03.000Z,9.66
2022-08-09T03:14:01.000Z,9.87
2022-08-09T03:15:03.000Z,9.87
2022-08-09T03:16:02.000Z,9.90
2022-08-09T03:17:01.000Z,9.85
2022-08-09T03:18:01.000Z,9.90
2022-08-09T03:19:01.000Z,9.72
2022-08-09T03:20:03.000Z,9.72
2022-08-09T03:21:03.000Z,9.80
2022-08-09T03:22:01.000Z,9.89
2022-08-09T03:23:01.000Z,9.89
2022-08-09T03:24:01.000Z,9.76
2022-08-09T03:25:01.000Z,9.67
2022-08-09T03:26:01.000Z,9.66
2022-08-09T03:27:03.000Z,9.80
2022-08-09T03:28:03.000Z,9.69
2022-08-09T03:29:01.000Z,9.63
2022-08-09T03:30:03.000Z,9.72
2022-08-09T03:31:01.000Z,9.82
2022-08-09T03:32:02.000Z,9.82
2022-08-09T03:33:05.000Z,9.78
2022-08-09T03:34:03.000Z,9.58
2022-08-09T03:35:01.000Z,9.55
2022-08-09T03:36:02.000Z,9.81
2022-08-09T03:37:00.000Z,9.87
2022-08-09T03:37:00.000Z,9.87
2022-08-09T03:38:01.000Z,9.79
2022-08-09T03:39:01.000Z,9.75
2022-08-09T03:40:01.000Z,9.81
2022-08-09T03:41:00.000Z,9.69
2022-08-09T03:42:00.000Z,9.80
2022-08-09T03:43:00.000Z,9.70
2022-08-09T03:44:00.000Z,9.71
2022-08-09T03:45:00.000Z,9.49
2022-08-09T03:46:00.000Z,9.77
2022-08-09T03:47:00.000Z,9.65
2022-08-09T03:48:01.000Z,9.86
2022-08-09T03:49:02.000Z,9.85
2022-08-09T03:50:04.000Z,9.79
2022-08-09T03:51:02.000Z,9.72
2022-08-09T03:52:01.000Z,9.65
2022-08-09T03:53:03.000Z,9.62
2022-08-09T03:54:01.000Z,9.78
2022-08-09T03:55:03.000Z,9.65
2022-08-09T03:56:01.000Z,9.63
2022-08-09T03:57:04.000Z,9.59
2022-08-09T03:58:01.000Z,9.76
2022-08-09T03:59:00.000Z,9.71
2022-08-09T04:00:02.000Z,9.73
2022-08-09T04:01:01.000Z,9.60
2022-08-09T04:02:03.000Z,9.51
2022-08-09T04:03:02.000Z,9.52
2022-08-09T04:04:02.000Z,9.58
2022-08-09T04:05:02.000Z,9.70
2022-08-09T04:06:01.000Z,9.72
2022-08-09T04:07:01.000Z,9.75
2022-08-09T04:08:01.000Z,9.75
2022-08-09T04:09:02.000Z,9.83
2022-08-09T04:10:01.000Z,9.79
2022-08-09T04:11:01.000Z,9.67
2022-08-09T04:12:24.000Z,9.70
2022-08-09T04:13:08.000Z,9.73
2022-08-09T04:14:01.000Z,9.77
2022-08-09T04:14:01.000Z,9.77
2022-08-09T04:15:03.000Z,9.83
2022-08-09T04:16:01.000Z,9.77
2022-08-09T04:17:01.000Z,9.71
2022-08-09T04:18:02.000Z,9.72
2022-08-09T04:19:01.000Z,9.67
2022-08-09T04:20:01.000Z,9.72
2022-08-09T04:21:01.000Z,9.71
2022-08-09T04:22:01.000Z,9.66
2022-08-09T04:23:01.000Z,9.69
2022-08-09T04:24:01.000Z,9.68
2022-08-09T04:25:02.000Z,9.65
2022-08-09T04:26:01.000Z,9.63
2022-08-09T04:27:01.000Z,9.60
2022-08-09T04:28:01.000Z,9.50
2022-08-09T04:29:01.000Z,9.50
2022-08-09T04:30:01.000Z,9.59
2022-08-09T04:31:01.000Z,9.54
2022-08-09T04:32:01.000Z,9.68
2022-08-09T04:33:01.000Z,9.60
2022-08-09T04:34:01.000Z,9.63
2022-08-09T04:35:01.000Z,9.43
2022-08-09T04:36:00.000Z,9.68
2022-08-09T04:37:01.000Z,9.74
2022-08-09T04:38:00.000Z,9.66
2022-08-09T04:39:04.000Z,9.58
2022-08-09T04:40:01.000Z,9.71
2022-08-09T04:41:00.000Z,9.79
2022-08-09T04:42:01.000Z,9.76
2022-08-09T04:43:00.000Z,9.67
2022-08-09T04:44:02.000Z,9.86
2022-08-09T04:45:01.000Z,9.74
2022-08-09T04:46:01.000Z,9.71
2022-08-09T04:47:00.000Z,9.80
2022-08-09T04:48:00.000Z,9.69
2022-08-09T04:49:00.000Z,9.73
2022-08-09T04:50:01.000Z,9.73
2022-08-09T04:51:01.000Z,9.86
2022-08-09T04:52:02.000Z,9.93
2022-08-09T04:53:01.000Z,9.92
2022-08-09T04:54:01.000Z,9.75
2022-08-09T04:55:01.000Z,9.93
2022-08-09T04:56:01.000Z,9.91
2022-08-09T04:57:00.000Z,9.85
2022-08-09T04:58:00.000Z,9.92
2022-08-09T04:59:01.000Z,9.92
2022-08-09T05:00:04.000Z,9.92
2022-08-09T05:01:01.000Z,9.94
2022-08-09T05:02:01.000Z,10.05
2022-08-09T05:03:02.000Z,9.87
2022-08-09T05:04:00.000Z,9.93
2022-08-09T05:05:00.000Z,9.78
2022-08-09T05:06:00.000Z,9.86
2022-08-09T05:07:00.000Z,9.77
2022-08-09T05:08:00.000Z,9.97
2022-08-09T05:09:00.000Z,9.97
2022-08-09T05:10:00.000Z,10.02
2022-08-09T05:11:01.000Z,10.00
2022-08-09T05:12:00.000Z,9.95
2022-08-09T05:13:00.000Z,9.81
2022-08-09T05:14:01.000Z,9.83
2022-08-09T05:15:00.000Z,10.62
2022-08-09T05:16:00.000Z,10.34
2022-08-09T05:17:00.000Z,10.40
2022-08-09T05:18:00.000Z,10.40
2022-08-09T05:18:00.000Z,10.40
2022-08-09T05:19:00.000Z,10.68
2022-08-09T05:20:00.000Z,10.24
2022-08-09T05:21:01.000Z,10.20
2022-08-09T05:22:00.000Z,10.07
2022-08-09T05:23:00.000Z,10.17
2022-08-09T05:23:00.000Z,10.17
2022-08-09T05:24:02.000Z,10.26
2022-08-09T05:25:04.000Z,10.10
2022-08-09T05:26:00.000Z,10.16
2022-08-09T05:27:00.000Z,10.49
2022-08-09T05:28:00.000Z,10.22
2022-08-09T05:29:00.000Z,10.17
2022-08-09T05:30:00.000Z,10.18
2022-08-09T05:31:00.000Z,10.19
2022-08-09T05:32:00.000Z,10.11
2022-08-09T05:33:00.000Z,10.07
2022-08-09T05:34:01.000Z,10.40
2022-08-09T05:35:01.000Z,10.09
2022-08-09T05:36:03.000Z,10.01
2022-08-09T05:37:03.000Z,9.94
2022-08-09T05:38:01.000Z,9.90
2022-08-09T05:39:00.000Z,9.93
2022-08-09T05:40:01.000Z,9.86
2022-08-09T05:41:00.000Z,9.96
2022-08-09T05:42:01.000Z,9.88
2022-08-09T05:43:01.000Z,9.66
2022-08-09T05:44:01.000Z,9.54
2022-08-09T05:45:01.000Z,9.58
2022-08-09T05:46:01.000Z,9.56
2022-08-09T05:47:01.000Z,9.60
2022-08-09T05:48:01.000Z,9.58
2022-08-09T05:49:00.000Z,9.54
2022-08-09T05:50:01.000Z,9.66
2022-08-09T05:51:01.000Z,9.68
2022-08-09T05:52:01.000Z,9.79
2022-08-09T05:53:01.000Z,9.74
2022-08-09T05:54:00.000Z,9.71
2022-08-09T05:55:01.000Z,9.84
2022-08-09T05:56:01.000Z,9.73
2022-08-09T05:57:01.000Z,9.80
2022-08-09T05:58:01.000Z,9.91
2022-08-09T05:59:01.000Z,10.12
2022-08-09T06:00:02.000Z,10.06
2022-08-09T06:01:01.000Z,9.97
2022-08-09T06:02:01.000Z,10.07
2022-08-09T06:03:02.000Z,10.13
2022-08-09T06:04:01.000Z,10.03
2022-08-09T06:05:01.000Z,10.07
2022-08-09T06:06:00.000Z,10.01
2022-08-09T06:07:02.000Z,10.00
2022-08-09T06:08:01.000Z,10.02
2022-08-09T06:09:01.000Z,10.00
2022-08-09T06:10:01.000Z,10.05
2022-08-09T06:11:01.000Z,9.93
2022-08-09T06:12:00.000Z,9.92
2022-08-09T06:13:00.000Z,9.88
2022-08-09T06:14:00.000Z,10.07
2022-08-09T06:15:00.000Z,10.09
2022-08-09T06:16:01.000Z,10.05
2022-08-09T06:17:00.000Z,10.15
2022-08-09T06:18:01.000Z,10.01
2022-08-09T06:19:00.000Z,10.02
2022-08-09T06:20:00.000Z,9.92
2022-08-09T06:21:02.000Z,9.94
2022-08-09T06:22:00.000Z,10.08
2022-08-09T06:23:00.000Z,10.07
2022-08-09T06:24:00.000Z,10.04
2022-08-09T06:25:00.000Z,10.09
2022-08-09T06:26:00.000Z,10.22
2022-08-09T06:27:00.000Z,10.10
2022-08-09T06:28:00.000Z,10.16
2022-08-09T06:29:00.000Z,10.11
2022-08-09T06:30:01.000Z,10.11
2022-08-09T06:31:00.000Z,10.28
2022-08-09T06:32:00.000Z,10.33
2022-08-09T06:33:00.000Z,10.23
2022-08-09T06:34:01.000Z,10.08
2022-08-09T06:35:00.000Z,10.10
2022-08-09T06:36:00.000Z,10.10
2022-08-09T06:37:00.000Z,10.08
2022-08-09T06:38:00.000Z,10.13
2022-08-09T06:39:00.000Z,10.17
2022-08-09T06:40:00.000Z,10.17
2022-08-09T06:41:00.000Z,10.16
2022-08-09T06:42:00.000Z,10.08
2022-08-09T06:43:00.000Z,10.07
2022-08-09T06:44:00.000Z,10.02
2022-08-09T06:45:00.000Z,10.07
2022-08-09T06:45:00.000Z,10.07
2022-08-09T06:46:10.000Z,10.13
2022-08-09T06:47:01.000Z,9.82
2022-08-09T06:48:00.000Z,9.84
2022-08-09T06:49:00.000Z,9.81
2022-08-09T06:50:00.000Z,9.83
2022-08-09T06:51:00.000Z,9.92
2022-08-09T06:52:00.000Z,9.99
2022-08-09T06:53:01.000Z,9.95
2022-08-09T06:54:00.000Z,10.06
2022-08-09T06:55:00.000Z,10.06
2022-08-09T06:56:02.000Z,10.16
2022-08-09T06:57:00.000Z,10.13
2022-08-09T06:58:00.000Z,9.73
2022-08-09T06:59:00.000Z,9.69
2022-08-09T06:59:00.000Z,9.69
2022-08-09T06:59:00.000Z,9.69
2022-08-09T07:00:32.000Z,9.63
2022-08-09T07:01:00.000Z,9.58
2022-08-09T07:02:00.000Z,9.55
2022-08-09T07:03:01.000Z,9.61
2022-08-09T07:04:00.000Z,9.59
2022-08-09T07:05:01.000Z,9.54
2022-08-09T07:06:02.000Z,9.53
2022-08-09T07:07:03.000Z,9.60
2022-08-09T07:08:01.000Z,9.62
2022-08-09T07:09:01.000Z,9.60
2022-08-09T07:10:01.000Z,9.68
2022-08-09T07:11:02.000Z,9.53
2022-08-09T07:12:01.000Z,9.62
2022-08-09T07:13:01.000Z,9.58
2022-08-09T07:14:01.000Z,9.56
2022-08-09T07:15:03.000Z,9.67
2022-08-09T07:15:03.000Z,9.67
2022-08-09T07:15:03.000Z,9.67
2022-08-09T07:16:31.000Z,9.74
2022-08-09T07:17:01.000Z,9.85
2022-08-09T07:18:01.000Z,9.71
2022-08-09T07:19:01.000Z,9.65
2022-08-09T07:20:01.000Z,9.72
2022-08-09T07:21:01.000Z,9.74
2022-08-09T07:22:01.000Z,9.90
2022-08-09T07:23:01.000Z,10.07
2022-08-09T07:24:01.000Z,9.87
2022-08-09T07:25:03.000Z,9.82
2022-08-09T07:26:03.000Z,9.78
2022-08-09T07:27:01.000Z,9.86
2022-08-09T07:28:01.000Z,9.68
2022-08-09T07:29:03.000Z,9.93
2022-08-09T07:30:02.000Z,9.90
2022-08-09T07:31:02.000Z,9.75
2022-08-09T07:32:03.000Z,9.93
2022-08-09T07:33:01.000Z,10.10
2022-08-09T07:34:01.000Z,10.00
2022-08-09T07:35:03.000Z,10.07
2022-08-09T07:36:00.000Z,10.12
2022-08-09T07:37:00.000Z,10.14
2022-08-09T07:38:00.000Z,10.05
2022-08-09T07:39:00.000Z,9.98
2022-08-09T07:40:01.000Z,10.28
2022-08-09T07:41:00.000Z,10.23
2022-08-09T07:42:01.000Z,10.32
2022-08-09T07:43:00.000Z,10.25
2022-08-09T07:44:00.000Z,10.33
2022-08-09T07:45:00.000Z,10.18
2022-08-09T07:46:00.000Z,10.16
2022-08-09T07:47:00.000Z,10.08
2022-08-09T07:48:00.000Z,9.95
2022-08-09T07:49:00.000Z,10.28
2022-08-09T07:50:00.000Z,10.25
2022-08-09T07:51:00.000Z,10.27
2022-08-09T07:51:00.000Z,10.27
2022-08-09T07:52:10.000Z,10.22
2022-08-09T07:53:00.000Z,10.25
2022-08-09T07:54:00.000Z,10.27
2022-08-09T07:55:01.000Z,10.36
2022-08-09T07:56:00.000Z,10.28
2022-08-09T07:57:00.000Z,10.40
2022-08-09T07:58:01.000Z,10.35
2022-08-09T07:59:00.000Z,10.45
2022-08-09T08:00:04.000Z,10.53
2022-08-09T08:01:00.000Z,10.47
2022-08-09T08:02:01.000Z,10.44
2022-08-09T08:03:01.000Z,10.40
2022-08-09T08:04:02.000Z,10.60
2022-08-09T08:05:02.000Z,10.49
2022-08-09T08:06:00.000Z,10.43
2022-08-09T08:07:03.000Z,10.42
2022-08-09T08:07:03.000Z,10.42
2022-08-09T08:07:03.000Z,10.42
2022-08-09T08:08:31.000Z,10.42
2022-08-09T08:09:05.000Z,10.40
2022-08-09T08:10:03.000Z,10.31
2022-08-09T08:11:01.000Z,10.60
2022-08-09T08:11:01.000Z,10.60
2022-08-09T08:11:01.000Z,10.60
2022-08-09T08:12:31.000Z,10.47
2022-08-09T08:13:01.000Z,10.52
2022-08-09T08:14:00.000Z,10.43
2022-08-09T08:15:01.000Z,10.70
2022-08-09T08:16:01.000Z,10.58
2022-08-09T08:17:00.000Z,10.79
2022-08-09T08:18:01.000Z,10.60
2022-08-09T08:19:00.000Z,10.71
2022-08-09T08:20:01.000Z,10.88
2022-08-09T08:21:01.000Z,10.66
2022-08-09T08:22:01.000Z,10.63
2022-08-09T08:23:03.000Z,10.55
2022-08-09T08:24:01.000Z,10.61
2022-08-09T08:25:00.000Z,10.55
2022-08-09T08:26:01.000Z,10.62
2022-08-09T08:27:01.000Z,10.43
2022-08-09T08:28:00.000Z,10.60
2022-08-09T08:29:01.000Z,10.71
2022-08-09T08:30:01.000Z,10.85
2022-08-09T08:31:01.000Z,10.95
2022-08-09T08:32:01.000Z,10.84
2022-08-09T08:33:00.000Z,10.70
2022-08-09T08:34:00.000Z,10.55
2022-08-09T08:35:02.000Z,10.56
2022-08-09T08:36:01.000Z,10.62
2022-08-09T08:37:01.000Z,10.62
2022-08-09T08:38:00.000Z,10.62
2022-08-09T08:39:02.000Z,10.65
2022-08-09T08:40:04.000Z,10.58
2022-08-09T08:41:01.000Z,10.50
2022-08-09T08:42:01.000Z,10.62
2022-08-09T08:43:03.000Z,10.65
2022-08-09T08:44:01.000Z,10.59
2022-08-09T08:45:02.000Z,10.62
2022-08-09T08:46:03.000Z,10.59
2022-08-09T08:47:02.000Z,10.55
2022-08-09T08:48:03.000Z,10.60
2022-08-09T08:49:01.000Z,10.67
2022-08-09T08:50:02.000Z,10.74
2022-08-09T08:51:01.000Z,10.78
2022-08-09T08:52:01.000Z,10.78
2022-08-09T08:53:01.000Z,10.89
2022-08-09T08:54:07.000Z,10.61
2022-08-09T08:55:01.000Z,10.90
2022-08-09T08:56:01.000Z,10.82
2022-08-09T08:57:02.000Z,10.73
2022-08-09T08:58:00.000Z,10.70
2022-08-09T08:59:04.000Z,10.54
2022-08-09T09:00:02.000Z,10.79
2022-08-09T09:01:02.000Z,10.88
2022-08-09T09:02:03.000Z,10.81
2022-08-09T09:03:02.000Z,10.86
2022-08-09T09:04:08.000Z,10.80
2022-08-09T09:05:01.000Z,10.99
2022-08-09T09:06:01.000Z,10.74
2022-08-09T09:07:06.000Z,11.06
2022-08-09T09:08:01.000Z,10.80
2022-08-09T09:09:03.000Z,10.65
2022-08-09T09:10:05.000Z,10.77
2022-08-09T09:11:03.000Z,10.65
2022-08-09T09:12:00.000Z,10.69
2022-08-09T09:13:00.000Z,10.51
2022-08-09T09:14:09.000Z,10.61
2022-08-09T09:15:02.000Z,10.80
2022-08-09T09:16:01.000Z,10.69
2022-08-09T09:17:01.000Z,10.53
2022-08-09T09:18:00.000Z,10.44
2022-08-09T09:19:05.000Z,10.53
2022-08-09T09:20:00.000Z,10.54
2022-08-09T09:21:00.000Z,10.47
2022-08-09T09:22:11.000Z,10.56
2022-08-09T09:23:00.000Z,10.29
2022-08-09T09:24:04.000Z,10.62
2022-08-09T09:25:00.000Z,10.53
2022-08-09T09:25:00.000Z,10.53
2022-08-09T09:26:12.000Z,10.45
2022-08-09T09:27:01.000Z,10.73
2022-08-09T09:28:01.000Z,10.67
2022-08-09T09:29:00.000Z,10.62
2022-08-09T09:30:09.000Z,10.66
2022-08-09T09:31:00.000Z,10.57
2022-08-09T09:32:01.000Z,10.41
2022-08-09T09:33:09.000Z,10.68
2022-08-09T09:34:09.000Z,10.55
2022-08-09T09:35:15.000Z,10.57
2022-08-09T09:36:26.000Z,10.64
2022-08-09T09:37:26.000Z,10.69
2022-08-09T09:38:42.000Z,10.64
2022-08-09T09:39:08.000Z,10.76
2022-08-09T09:40:04.000Z,10.79
2022-08-09T09:41:03.000Z,10.69
2022-08-09T09:42:03.000Z,10.66
2022-08-09T09:43:02.000Z,10.54
2022-08-09T09:44:05.000Z,10.59
2022-08-09T09:45:05.000Z,10.61
2022-08-09T09:46:03.000Z,10.63
2022-08-09T09:47:06.000Z,10.46
2022-08-09T09:48:03.000Z,10.16
2022-08-09T09:49:05.000Z,10.22
2022-08-09T09:50:03.000Z,10.33
2022-08-09T09:51:03.000Z,10.54
2022-08-09T09:52:05.000Z,10.55
2022-08-09T09:53:02.000Z,10.63
2022-08-09T09:54:09.000Z,10.85
2022-08-09T09:55:05.000Z,10.83
2022-08-09T09:56:03.000Z,10.62
2022-08-09T09:57:11.000Z,10.90
2022-08-09T09:57:11.000Z,10.90
2022-08-09T09:58:06.000Z,10.80
2022-08-09T09:59:03.000Z,10.79
2022-08-09T10:00:22.000Z,10.67
2022-08-09T10:01:02.000Z,10.54
2022-08-09T10:02:02.000Z,10.53
2022-08-09T10:03:02.000Z,10.42
2022-08-09T10:04:10.000Z,10.01
2022-08-09T10:05:08.000Z,9.73
2022-08-09T10:06:03.000Z,9.89
2022-08-09T10:07:03.000Z,10.00
2022-08-09T10:08:03.000Z,10.01
2022-08-09T10:09:03.000Z,9.92
2022-08-09T10:10:05.000Z,9.99
2022-08-09T10:11:23.000Z,9.94
2022-08-09T10:12:31.000Z,9.57
2022-08-09T10:13:03.000Z,9.80
2022-08-09T10:14:03.000Z,9.88
2022-08-09T10:15:15.000Z,9.95
2022-08-09T10:16:03.000Z,9.80
2022-08-09T10:16:03.000Z,9.80
2022-08-09T10:17:11.000Z,9.83
2022-08-09T10:18:09.000Z,9.91
2022-08-09T10:19:05.000Z,9.93
2022-08-09T10:20:10.000Z,9.78
2022-08-09T10:21:07.000Z,10.07
2022-08-09T10:22:03.000Z,10.18
2022-08-09T10:23:13.000Z,10.23
2022-08-09T10:24:04.000Z,10.29
2022-08-09T10:25:06.000Z,10.24
2022-08-09T10:26:03.000Z,10.24
2022-08-09T10:27:03.000Z,10.01
2022-08-09T10:28:03.000Z,9.90
2022-08-09T10:29:04.000Z,9.87
2022-08-09T10:29:04.000Z,9.87
2022-08-09T10:29:04.000Z,9.87
2022-08-09T10:29:04.000Z,9.87
2022-08-09T10:30:33.000Z,10.09
2022-08-09T10:30:33.000Z,10.09
2022-08-09T10:31:33.000Z,10.15
2022-08-09T10:32:33.000Z,10.10
2022-08-09T10:33:03.000Z,10.13
2022-08-09T10:34:03.000Z,10.15
2022-08-09T10:35:03.000Z,10.33
2022-08-09T10:36:05.000Z,10.33
2022-08-09T10:37:03.000Z,9.90
2022-08-09T10:38:04.000Z,10.06
2022-08-09T10:39:03.000Z,10.25
2022-08-09T10:40:05.000Z,10.18
2022-08-09T10:41:03.000Z,10.19
2022-08-09T10:42:04.000Z,10.23
2022-08-09T10:43:04.000Z,10.02
2022-08-09T10:44:03.000Z,10.04
2022-08-09T10:45:08.000Z,9.91
2022-08-09T10:46:12.000Z,10.13
2022-08-09T10:47:23.000Z,10.13
2022-08-09T10:47:23.000Z,10.13
2022-08-09T10:48:40.000Z,10.26
2022-08-09T10:49:12.000Z,10.07
2022-08-09T10:50:13.000Z,10.02
2022-08-09T10:51:19.000Z,9.78
2022-08-09T10:52:16.000Z,9.57
2022-08-09T10:53:10.000Z,9.47
2022-08-09T10:54:07.000Z,9.47
2022-08-09T10:55:12.000Z,9.29
2022-08-09T10:56:12.000Z,9.59
2022-08-09T10:57:06.000Z,9.53
2022-08-09T10:58:02.000Z,9.63
2022-08-09T10:59:37.000Z,9.90
2022-08-09T11:00:22.000Z,9.90
2022-08-09T11:01:03.000Z,10.00
2022-08-09T11:01:03.000Z,10.00
2022-08-09T11:01:03.000Z,10.00
2022-08-09T11:01:03.000Z,10.00
2022-08-09T11:02:37.000Z,10.11
2022-08-09T11:03:32.000Z,9.88
2022-08-09T11:04:12.000Z,9.82
2022-08-09T11:05:12.000Z,9.91
2022-08-09T11:06:21.000Z,9.92
2022-08-09T11:07:25.000Z,9.99
2022-08-09T11:08:12.000Z,10.06
2022-08-09T11:09:04.000Z,9.99
2022-08-09T11:10:03.000Z,10.08
2022-08-09T11:11:02.000Z,10.08
2022-08-09T11:12:26.000Z,10.10
2022-08-09T11:13:12.000Z,9.95
2022-08-09T11:14:23.000Z,10.06
2022-08-09T11:15:22.000Z,10.25
2022-08-09T11:16:12.000Z,10.25
2022-08-09T11:17:36.000Z,10.24
2022-08-09T11:18:03.000Z,10.05
2022-08-09T11:19:05.000Z,10.09
2022-08-09T11:20:08.000Z,10.08
2022-08-09T11:21:04.000Z,10.22
2022-08-09T11:22:02.000Z,10.28
2022-08-09T11:23:03.000Z,10.11
2022-08-09T11:24:03.000Z,9.99
2022-08-09T11:25:23.000Z,10.10
2022-08-09T11:26:02.000Z,10.26
2022-08-09T11:27:23.000Z,10.23
2022-08-09T11:28:15.000Z,10.17
2022-08-09T11:29:02.000Z,10.20
2022-08-09T11:30:11.000Z,10.07
2022-08-09T11:31:22.000Z,10.08
2022-08-09T11:32:02.000Z,10.26
2022-08-09T11:33:33.000Z,10.31
2022-08-09T11:34:08.000Z,10.42
2022-08-09T11:35:09.000Z,10.59
2022-08-09T11:36:03.000Z,10.50
2022-08-09T11:37:05.000Z,10.20
2022-08-09T11:38:15.000Z,10.19
2022-08-09T11:39:03.000Z,10.38
2022-08-09T11:40:05.000Z,10.41
2022-08-09T11:41:25.000Z,10.50
2022-08-09T11:42:07.000Z,10.56
2022-08-09T11:43:03.000Z,10.53
2022-08-09T11:44:03.000Z,10.39
2022-08-09T11:45:04.000Z,10.34
2022-08-09T11:46:04.000Z,10.58
2022-08-09T11:47:03.000Z,10.59
2022-08-09T11:48:25.000Z,10.65
2022-08-09T11:49:03.000Z,10.66
2022-08-09T11:50:03.000Z,10.82
2022-08-09T11:50:03.000Z,10.82
2022-08-09T11:51:04.000Z,10.74
2022-08-09T11:51:04.000Z,10.74
2022-08-09T11:51:04.000Z,10.74
2022-08-09T11:51:04.000Z,10.74
2022-08-09T11:52:54.000Z,10.71
2022-08-09T11:52:54.000Z,10.71
2022-08-09T11:53:34.000Z,10.70
2022-08-09T11:54:12.000Z,10.57
2022-08-09T11:55:13.000Z,10.55
2022-08-09T11:56:22.000Z,10.61
2022-08-09T11:57:13.000Z,10.39
2022-08-09T11:58:13.000Z,10.57
2022-08-09T11:59:04.000Z,10.73
2022-08-09T12:00:04.000Z,10.40
2022-08-09T12:01:05.000Z,10.28
2022-08-09T12:02:11.000Z,10.39
2022-08-09T12:03:02.000Z,10.70
2022-08-09T12:03:02.000Z,10.70
2022-08-09T12:04:06.000Z,10.75
2022-08-09T12:05:03.000Z,10.84
2022-08-09T12:06:13.000Z,10.60
2022-08-09T12:07:03.000Z,10.50
2022-08-09T12:08:07.000Z,10.66
2022-08-09T12:09:08.000Z,10.76
2022-08-09T12:10:03.000Z,10.85
2022-08-09T12:11:03.000Z,10.68
2022-08-09T12:12:11.000Z,10.62
2022-08-09T12:13:02.000Z,10.83
2022-08-09T12:13:02.000Z,10.83
2022-08-09T12:14:11.000Z,10.72
2022-08-09T12:14:11.000Z,10.72
2022-08-09T12:15:18.000Z,10.58
2022-08-09T12:16:17.000Z,10.77
2022-08-09T12:17:11.000Z,10.59
2022-08-09T12:18:03.000Z,10.67
2022-08-09T12:19:06.000Z,10.68
2022-08-09T12:20:11.000Z,10.80
2022-08-09T12:21:07.000Z,10.44
2022-08-09T12:22:03.000Z,10.51
2022-08-09T12:23:02.000Z,10.50
2022-08-09T12:24:05.000Z,10.48